sensor_id;sensor_type;location;lat;lon;timestamp;temperature;humidity
5280;DHT22;2663;53.588;10.010;2022-08-21T00:00:25;18.50;93.80
5280;DHT22;2663;53.588;10.010;2022-08-21T00:02:59;18.50;93.90
5280;DHT22;2663;53.588;10.010;2022-08-21T00:05:26;18.50;93.90
5280;DHT22;2663;53.588;10.010;2022-08-21T00:07:54;18.40;94.00
5280;DHT22;2663;53.588;10.010;2022-08-21T00:10:21;18.40;93.90
5280;DHT22;2663;53.588;10.010;2022-08-21T00:12:48;18.40;94.10
5280;DHT22;2663;53.588;10.010;2022-08-21T00:15:19;18.40;94.10
5280;DHT22;2663;53.588;10.010;2022-08-21T00:17:46;18.40;94.10
5280;DHT22;2663;53.588;10.010;2022-08-21T00:20:15;18.30;94.10
5280;DHT22;2663;53.588;10.010;2022-08-21T00:22:42;18.40;94.10
5280;DHT22;2663;53.588;10.010;2022-08-21T00:25:10;18.30;94.00
5280;DHT22;2663;53.588;10.010;2022-08-21T00:27:37;18.30;94.10
5280;DHT22;2663;53.588;10.010;2022-08-21T00:30:05;18.30;94.30
5280;DHT22;2663;53.588;10.010;2022-08-21T00:32:33;18.30;94.30
5280;DHT22;2663;53.588;10.010;2022-08-21T00:35:00;17.20;94.10
5280;DHT22;2663;53.588;10.010;2022-08-21T00:37:26;18.30;94.50
5280;DHT22;2663;53.588;10.010;2022-08-21T00:39:56;18.20;94.40
5280;DHT22;2663;53.588;10.010;2022-08-21T00:42:23;18.20;94.60
5280;DHT22;2663;53.588;10.010;2022-08-21T00:44:50;18.20;94.70
5280;DHT22;2663;53.588;10.010;2022-08-21T00:47:18;18.20;94.60
5280;DHT22;2663;53.588;10.010;2022-08-21T00:49:45;18.20;94.70
5280;DHT22;2663;53.588;10.010;2022-08-21T00:52:22;18.20;94.80
5280;DHT22;2663;53.588;10.010;2022-08-21T00:54:51;18.20;94.70
5280;DHT22;2663;53.588;10.010;2022-08-21T00:57:29;18.20;94.80
5280;DHT22;2663;53.588;10.010;2022-08-21T00:59:58;18.10;95.00
5280;DHT22;2663;53.588;10.010;2022-08-21T01:02:27;18.10;95.00
5280;DHT22;2663;53.588;10.010;2022-08-21T01:04:54;18.10;95.00
5280;DHT22;2663;53.588;10.010;2022-08-21T01:07:21;18.10;95.10
5280;DHT22;2663;53.588;10.010;2022-08-21T01:09:49;18.10;95.20
5280;DHT22;2663;53.588;10.010;2022-08-21T01:12:16;18.10;95.20
5280;DHT22;2663;53.588;10.010;2022-08-21T01:14:44;18.10;95.20
5280;DHT22;2663;53.588;10.010;2022-08-21T01:17:13;18.10;95.40
5280;DHT22;2663;53.588;10.010;2022-08-21T01:19:39;18.10;95.40
5280;DHT22;2663;53.588;10.010;2022-08-21T01:22:06;18.10;95.40
5280;DHT22;2663;53.588;10.010;2022-08-21T01:24:33;18.00;95.50
5280;DHT22;2663;53.588;10.010;2022-08-21T01:27:01;18.00;95.60
5280;DHT22;2663;53.588;10.010;2022-08-21T01:29:41;18.00;95.60
5280;DHT22;2663;53.588;10.010;2022-08-21T01:32:18;18.00;95.70
5280;DHT22;2663;53.588;10.010;2022-08-21T01:34:47;18.00;95.70
5280;DHT22;2663;53.588;10.010;2022-08-21T01:37:14;17.90;95.70
5280;DHT22;2663;53.588;10.010;2022-08-21T01:39:43;17.90;95.80
5280;DHT22;2663;53.588;10.010;2022-08-21T01:42:11;17.90;95.90
5280;DHT22;2663;53.588;10.010;2022-08-21T01:44:37;17.90;96.00
5280;DHT22;2663;53.588;10.010;2022-08-21T01:47:07;17.90;95.90
5280;DHT22;2663;53.588;10.010;2022-08-21T01:49:36;17.90;96.00
5280;DHT22;2663;53.588;10.010;2022-08-21T01:52:04;17.90;96.00
5280;DHT22;2663;53.588;10.010;2022-08-21T01:54:35;17.90;96.10
5280;DHT22;2663;53.588;10.010;2022-08-21T01:57:04;17.80;96.20
5280;DHT22;2663;53.588;10.010;2022-08-21T01:59:31;17.80;96.20
5280;DHT22;2663;53.588;10.010;2022-08-21T02:01:59;17.80;96.20
5280;DHT22;2663;53.588;10.010;2022-08-21T02:04:25;17.80;96.30
5280;DHT22;2663;53.588;10.010;2022-08-21T02:06:52;17.80;96.40
5280;DHT22;2663;53.588;10.010;2022-08-21T02:09:19;17.80;96.30
5280;DHT22;2663;53.588;10.010;2022-08-21T02:11:46;17.80;96.30
5280;DHT22;2663;53.588;10.010;2022-08-21T02:14:14;17.70;96.40
5280;DHT22;2663;53.588;10.010;2022-08-21T02:16:58;17.70;96.50
5280;DHT22;2663;53.588;10.010;2022-08-21T02:19:34;17.80;96.40
5280;DHT22;2663;53.588;10.010;2022-08-21T02:22:09;17.70;96.50
5280;DHT22;2663;53.588;10.010;2022-08-21T02:24:37;17.70;96.70
5280;DHT22;2663;53.588;10.010;2022-08-21T02:27:20;17.70;96.90
5280;DHT22;2663;53.588;10.010;2022-08-21T02:29:53;17.70;96.70
5280;DHT22;2663;53.588;10.010;2022-08-21T02:32:20;17.70;96.80
5280;DHT22;2663;53.588;10.010;2022-08-21T02:34:47;17.70;96.60
5280;DHT22;2663;53.588;10.010;2022-08-21T02:37:15;17.60;96.90
5280;DHT22;2663;53.588;10.010;2022-08-21T02:39:42;17.60;97.00
5280;DHT22;2663;53.588;10.010;2022-08-21T02:42:08;17.60;97.10
5280;DHT22;2663;53.588;10.010;2022-08-21T02:44:35;17.60;97.20
5280;DHT22;2663;53.588;10.010;2022-08-21T02:47:02;17.70;97.20
5280;DHT22;2663;53.588;10.010;2022-08-21T02:49:28;17.70;97.30
5280;DHT22;2663;53.588;10.010;2022-08-21T02:51:55;17.70;97.40
5280;DHT22;2663;53.588;10.010;2022-08-21T02:54:22;17.70;97.50
5280;DHT22;2663;53.588;10.010;2022-08-21T02:56:48;17.70;97.50
5280;DHT22;2663;53.588;10.010;2022-08-21T02:59:15;17.70;97.50
5280;DHT22;2663;53.588;10.010;2022-08-21T03:01:42;17.70;97.70
5280;DHT22;2663;53.588;10.010;2022-08-21T03:04:09;17.70;97.70
5280;DHT22;2663;53.588;10.010;2022-08-21T03:06:36;17.70;97.80
5280;DHT22;2663;53.588;10.010;2022-08-21T03:09:03;17.70;98.00
5280;DHT22;2663;53.588;10.010;2022-08-21T03:11:29;16.20;97.50
5280;DHT22;2663;53.588;10.010;2022-08-21T03:13:56;17.60;97.90
5280;DHT22;2663;53.588;10.010;2022-08-21T03:16:23;17.60;98.20
5280;DHT22;2663;53.588;10.010;2022-08-21T03:18:49;17.60;98.00
5280;DHT22;2663;53.588;10.010;2022-08-21T03:21:16;17.60;98.00
5280;DHT22;2663;53.588;10.010;2022-08-21T03:23:45;17.60;98.10
5280;DHT22;2663;53.588;10.010;2022-08-21T03:26:13;17.60;98.10
5280;DHT22;2663;53.588;10.010;2022-08-21T03:28:41;17.50;98.40
5280;DHT22;2663;53.588;10.010;2022-08-21T03:31:08;17.50;98.30
5280;DHT22;2663;53.588;10.010;2022-08-21T03:33:35;17.50;98.40
5280;DHT22;2663;53.588;10.010;2022-08-21T03:36:04;17.50;98.30
5280;DHT22;2663;53.588;10.010;2022-08-21T03:38:33;17.50;98.50
5280;DHT22;2663;53.588;10.010;2022-08-21T03:41:02;17.50;98.30
5280;DHT22;2663;53.588;10.010;2022-08-21T03:43:29;17.40;98.40
5280;DHT22;2663;53.588;10.010;2022-08-21T03:46:00;17.40;98.50
5280;DHT22;2663;53.588;10.010;2022-08-21T03:48:27;17.40;98.50
5280;DHT22;2663;53.588;10.010;2022-08-21T03:50:53;17.40;98.60
5280;DHT22;2663;53.588;10.010;2022-08-21T03:53:20;17.40;98.60
5280;DHT22;2663;53.588;10.010;2022-08-21T03:55:49;17.40;98.50
5280;DHT22;2663;53.588;10.010;2022-08-21T03:58:21;17.40;98.60
5280;DHT22;2663;53.588;10.010;2022-08-21T04:00:49;17.40;98.70
5280;DHT22;2663;53.588;10.010;2022-08-21T04:03:17;17.40;98.70
5280;DHT22;2663;53.588;10.010;2022-08-21T04:05:44;17.40;98.70
5280;DHT22;2663;53.588;10.010;2022-08-21T04:08:13;17.30;98.80
5280;DHT22;2663;53.588;10.010;2022-08-21T04:10:41;17.30;98.80
5280;DHT22;2663;53.588;10.010;2022-08-21T04:13:09;17.30;98.80
5280;DHT22;2663;53.588;10.010;2022-08-21T04:15:36;17.30;98.60
5280;DHT22;2663;53.588;10.010;2022-08-21T04:18:04;17.30;98.80
5280;DHT22;2663;53.588;10.010;2022-08-21T04:20:32;17.40;98.80
5280;DHT22;2663;53.588;10.010;2022-08-21T04:22:59;17.30;98.90
5280;DHT22;2663;53.588;10.010;2022-08-21T04:25:26;17.30;98.90
5280;DHT22;2663;53.588;10.010;2022-08-21T04:27:53;17.30;98.90
5280;DHT22;2663;53.588;10.010;2022-08-21T04:30:21;17.30;98.90
5280;DHT22;2663;53.588;10.010;2022-08-21T04:32:55;17.30;98.80
5280;DHT22;2663;53.588;10.010;2022-08-21T04:35:23;17.30;98.90
5280;DHT22;2663;53.588;10.010;2022-08-21T04:37:51;17.30;98.90
5280;DHT22;2663;53.588;10.010;2022-08-21T04:40:19;17.30;98.90
5280;DHT22;2663;53.588;10.010;2022-08-21T04:42:55;15.70;98.30
5280;DHT22;2663;53.588;10.010;2022-08-21T04:45:29;17.40;98.90
5280;DHT22;2663;53.588;10.010;2022-08-21T04:47:58;17.40;98.80
5280;DHT22;2663;53.588;10.010;2022-08-21T04:50:40;17.40;98.80
5280;DHT22;2663;53.588;10.010;2022-08-21T04:53:20;17.50;98.90
5280;DHT22;2663;53.588;10.010;2022-08-21T04:55:49;17.60;98.60
5280;DHT22;2663;53.588;10.010;2022-08-21T04:58:19;17.50;98.20
5280;DHT22;2663;53.588;10.010;2022-08-21T05:00:47;17.50;98.20
5280;DHT22;2663;53.588;10.010;2022-08-21T05:03:16;17.50;98.20
5280;DHT22;2663;53.588;10.010;2022-08-21T05:05:43;17.50;98.40
5280;DHT22;2663;53.588;10.010;2022-08-21T05:08:12;17.40;98.60
5280;DHT22;2663;53.588;10.010;2022-08-21T05:10:40;17.40;98.70
5280;DHT22;2663;53.588;10.010;2022-08-21T05:13:08;17.30;98.80
5280;DHT22;2663;53.588;10.010;2022-08-21T05:15:36;17.40;99.00
5280;DHT22;2663;53.588;10.010;2022-08-21T05:18:03;17.40;98.80
5280;DHT22;2663;53.588;10.010;2022-08-21T05:20:30;17.50;98.70
5280;DHT22;2663;53.588;10.010;2022-08-21T05:22:57;17.50;98.90
5280;DHT22;2663;53.588;10.010;2022-08-21T05:25:24;17.60;98.80
5280;DHT22;2663;53.588;10.010;2022-08-21T05:27:53;18.20;98.70
5280;DHT22;2663;53.588;10.010;2022-08-21T05:30:20;17.70;98.40
5280;DHT22;2663;53.588;10.010;2022-08-21T05:32:47;17.80;98.40
5280;DHT22;2663;53.588;10.010;2022-08-21T05:35:14;17.90;98.20
5280;DHT22;2663;53.588;10.010;2022-08-21T05:37:41;17.90;98.00
5280;DHT22;2663;53.588;10.010;2022-08-21T05:40:08;18.10;98.00
5280;DHT22;2663;53.588;10.010;2022-08-21T05:42:50;18.00;97.80
5280;DHT22;2663;53.588;10.010;2022-08-21T05:45:25;18.10;97.70
5280;DHT22;2663;53.588;10.010;2022-08-21T05:48:20;18.10;97.40
5280;DHT22;2663;53.588;10.010;2022-08-21T05:50:49;18.20;97.40
5280;DHT22;2663;53.588;10.010;2022-08-21T05:53:17;18.30;97.50
5280;DHT22;2663;53.588;10.010;2022-08-21T05:55:45;18.40;97.30
5280;DHT22;2663;53.588;10.010;2022-08-21T05:58:14;18.40;97.00
5280;DHT22;2663;53.588;10.010;2022-08-21T06:00:42;18.50;96.90
5280;DHT22;2663;53.588;10.010;2022-08-21T06:03:20;18.40;97.00
5280;DHT22;2663;53.588;10.010;2022-08-21T06:05:47;18.50;96.80
5280;DHT22;2663;53.588;10.010;2022-08-21T06:08:16;18.60;96.70
5280;DHT22;2663;53.588;10.010;2022-08-21T06:10:44;18.60;96.30
5280;DHT22;2663;53.588;10.010;2022-08-21T06:13:14;18.60;96.30
5280;DHT22;2663;53.588;10.010;2022-08-21T06:15:41;18.60;96.30
5280;DHT22;2663;53.588;10.010;2022-08-21T06:18:08;18.80;96.40
5280;DHT22;2663;53.588;10.010;2022-08-21T06:20:35;18.80;95.70
5280;DHT22;2663;53.588;10.010;2022-08-21T06:23:02;18.90;95.70
5280;DHT22;2663;53.588;10.010;2022-08-21T06:25:29;19.00;95.50
5280;DHT22;2663;53.588;10.010;2022-08-21T06:28:10;19.00;95.50
5280;DHT22;2663;53.588;10.010;2022-08-21T06:30:38;19.00;95.00
5280;DHT22;2663;53.588;10.010;2022-08-21T06:33:06;19.00;95.20
5280;DHT22;2663;53.588;10.010;2022-08-21T06:35:33;19.00;95.20
5280;DHT22;2663;53.588;10.010;2022-08-21T06:38:00;19.00;94.90
5280;DHT22;2663;53.588;10.010;2022-08-21T06:40:28;19.00;95.20
5280;DHT22;2663;53.588;10.010;2022-08-21T06:42:57;19.10;95.20
5280;DHT22;2663;53.588;10.010;2022-08-21T06:45:25;19.10;95.10
5280;DHT22;2663;53.588;10.010;2022-08-21T06:47:55;19.10;94.80
5280;DHT22;2663;53.588;10.010;2022-08-21T06:50:22;19.10;94.70
5280;DHT22;2663;53.588;10.010;2022-08-21T06:52:48;19.20;94.70
5280;DHT22;2663;53.588;10.010;2022-08-21T06:55:15;19.20;94.80
5280;DHT22;2663;53.588;10.010;2022-08-21T06:57:49;19.40;94.60
5280;DHT22;2663;53.588;10.010;2022-08-21T07:00:18;19.50;94.30
5280;DHT22;2663;53.588;10.010;2022-08-21T07:02:45;19.20;93.10
5280;DHT22;2663;53.588;10.010;2022-08-21T07:05:12;19.30;93.50
5280;DHT22;2663;53.588;10.010;2022-08-21T07:07:44;19.40;93.60
5280;DHT22;2663;53.588;10.010;2022-08-21T07:10:12;19.30;92.90
5280;DHT22;2663;53.588;10.010;2022-08-21T07:12:48;19.50;92.90
5280;DHT22;2663;53.588;10.010;2022-08-21T07:15:16;19.60;91.90
5280;DHT22;2663;53.588;10.010;2022-08-21T07:17:43;19.70;92.00
5280;DHT22;2663;53.588;10.010;2022-08-21T07:20:10;19.80;91.50
5280;DHT22;2663;53.588;10.010;2022-08-21T07:22:40;20.20;92.30
5280;DHT22;2663;53.588;10.010;2022-08-21T07:25:07;20.40;91.20
5280;DHT22;2663;53.588;10.010;2022-08-21T07:27:34;20.50;90.80
5280;DHT22;2663;53.588;10.010;2022-08-21T07:30:02;20.50;90.20
5280;DHT22;2663;53.588;10.010;2022-08-21T07:32:28;20.50;90.20
5280;DHT22;2663;53.588;10.010;2022-08-21T07:34:55;20.70;89.80
5280;DHT22;2663;53.588;10.010;2022-08-21T07:37:22;20.80;89.10
5280;DHT22;2663;53.588;10.010;2022-08-21T07:39:49;20.60;88.90
5280;DHT22;2663;53.588;10.010;2022-08-21T07:42:17;20.60;89.60
5280;DHT22;2663;53.588;10.010;2022-08-21T07:44:44;20.60;88.80
5280;DHT22;2663;53.588;10.010;2022-08-21T07:47:10;20.60;89.00
5280;DHT22;2663;53.588;10.010;2022-08-21T07:49:37;20.50;88.60
5280;DHT22;2663;53.588;10.010;2022-08-21T07:52:04;20.60;89.50
5280;DHT22;2663;53.588;10.010;2022-08-21T07:54:31;20.90;89.70
5280;DHT22;2663;53.588;10.010;2022-08-21T07:56:59;21.10;88.90
5280;DHT22;2663;53.588;10.010;2022-08-21T07:59:26;21.20;88.00
5280;DHT22;2663;53.588;10.010;2022-08-21T08:01:52;21.20;88.00
5280;DHT22;2663;53.588;10.010;2022-08-21T08:04:19;21.10;88.50
5280;DHT22;2663;53.588;10.010;2022-08-21T08:06:52;21.00;90.00
5280;DHT22;2663;53.588;10.010;2022-08-21T08:09:19;21.10;89.70
5280;DHT22;2663;53.588;10.010;2022-08-21T08:11:46;21.20;90.00
5280;DHT22;2663;53.588;10.010;2022-08-21T08:14:12;21.30;89.50
5280;DHT22;2663;53.588;10.010;2022-08-21T08:16:39;21.30;89.70
5280;DHT22;2663;53.588;10.010;2022-08-21T08:19:06;21.50;89.30
5280;DHT22;2663;53.588;10.010;2022-08-21T08:21:33;22.50;89.30
5280;DHT22;2663;53.588;10.010;2022-08-21T08:24:00;21.70;88.80
5280;DHT22;2663;53.588;10.010;2022-08-21T08:26:45;21.10;89.60
5280;DHT22;2663;53.588;10.010;2022-08-21T08:29:19;21.90;89.60
5280;DHT22;2663;53.588;10.010;2022-08-21T08:31:46;21.60;88.90
5280;DHT22;2663;53.588;10.010;2022-08-21T08:34:13;22.20;88.90
5280;DHT22;2663;53.588;10.010;2022-08-21T08:36:51;22.10;88.20
5280;DHT22;2663;53.588;10.010;2022-08-21T08:39:18;22.00;89.50
5280;DHT22;2663;53.588;10.010;2022-08-21T08:45:11;22.10;89.70
5280;DHT22;2663;53.588;10.010;2022-08-21T08:47:45;22.20;89.70
5280;DHT22;2663;53.588;10.010;2022-08-21T08:50:20;22.00;89.20
5280;DHT22;2663;53.588;10.010;2022-08-21T08:53:38;21.90;89.30
5280;DHT22;2663;53.588;10.010;2022-08-21T08:55:40;21.90;89.30
5280;DHT22;2663;53.588;10.010;2022-08-21T08:58:14;22.00;89.30
5280;DHT22;2663;53.588;10.010;2022-08-21T09:00:47;22.00;89.60
5280;DHT22;2663;53.588;10.010;2022-08-21T09:03:15;22.10;88.80
5280;DHT22;2663;53.588;10.010;2022-08-21T09:05:48;22.20;89.00
5280;DHT22;2663;53.588;10.010;2022-08-21T09:11:07;22.20;88.40
5280;DHT22;2663;53.588;10.010;2022-08-21T09:24:40;22.30;86.70
5280;DHT22;2663;53.588;10.010;2022-08-21T09:27:18;22.50;87.30
5280;DHT22;2663;53.588;10.010;2022-08-21T09:29:47;22.70;86.50
5280;DHT22;2663;53.588;10.010;2022-08-21T09:32:20;22.80;86.20
5280;DHT22;2663;53.588;10.010;2022-08-21T09:37:56;23.00;86.20
5280;DHT22;2663;53.588;10.010;2022-08-21T09:40:45;22.90;85.60
5280;DHT22;2663;53.588;10.010;2022-08-21T09:43:21;22.80;86.50
5280;DHT22;2663;53.588;10.010;2022-08-21T09:45:49;22.90;85.30
5280;DHT22;2663;53.588;10.010;2022-08-21T09:48:27;22.90;86.20
5280;DHT22;2663;53.588;10.010;2022-08-21T09:51:12;22.90;86.60
5280;DHT22;2663;53.588;10.010;2022-08-21T09:53:54;23.10;85.90
5280;DHT22;2663;53.588;10.010;2022-08-21T09:56:28;23.10;86.30
5280;DHT22;2663;53.588;10.010;2022-08-21T09:59:20;23.20;85.70
5280;DHT22;2663;53.588;10.010;2022-08-21T10:01:50;23.20;85.30
5280;DHT22;2663;53.588;10.010;2022-08-21T10:04:22;22.90;86.50
5280;DHT22;2663;53.588;10.010;2022-08-21T10:06:49;22.70;86.60
5280;DHT22;2663;53.588;10.010;2022-08-21T10:09:19;22.70;86.80
5280;DHT22;2663;53.588;10.010;2022-08-21T10:11:58;22.80;86.70
5280;DHT22;2663;53.588;10.010;2022-08-21T10:20:17;22.80;86.70
5280;DHT22;2663;53.588;10.010;2022-08-21T10:28:18;23.00;86.20
5280;DHT22;2663;53.588;10.010;2022-08-21T10:30:56;22.90;86.80
5280;DHT22;2663;53.588;10.010;2022-08-21T10:33:35;23.00;86.50
5280;DHT22;2663;53.588;10.010;2022-08-21T10:37:01;23.00;86.60
5280;DHT22;2663;53.588;10.010;2022-08-21T10:48:03;23.00;86.20
5280;DHT22;2663;53.588;10.010;2022-08-21T10:51:25;22.90;85.50
5280;DHT22;2663;53.588;10.010;2022-08-21T10:53:55;22.90;86.00
5280;DHT22;2663;53.588;10.010;2022-08-21T10:56:31;22.70;84.70
5280;DHT22;2663;53.588;10.010;2022-08-21T11:02:08;22.80;85.30
5280;DHT22;2663;53.588;10.010;2022-08-21T11:05:01;22.90;85.20
5280;DHT22;2663;53.588;10.010;2022-08-21T11:07:32;23.00;84.60
5280;DHT22;2663;53.588;10.010;2022-08-21T11:10:25;23.10;83.90
5280;DHT22;2663;53.588;10.010;2022-08-21T11:12:56;22.80;84.10
5280;DHT22;2663;53.588;10.010;2022-08-21T11:16:49;22.70;84.10
5280;DHT22;2663;53.588;10.010;2022-08-21T11:18:47;22.90;83.90
5280;DHT22;2663;53.588;10.010;2022-08-21T11:24:15;23.30;81.40
5280;DHT22;2663;53.588;10.010;2022-08-21T11:29:24;23.30;79.80
5280;DHT22;2663;53.588;10.010;2022-08-21T11:32:02;23.60;78.70
5280;DHT22;2663;53.588;10.010;2022-08-21T11:34:47;23.90;78.90
5280;DHT22;2663;53.588;10.010;2022-08-21T11:46:25;24.00;77.90
5280;DHT22;2663;53.588;10.010;2022-08-21T11:51:40;24.10;77.20
5280;DHT22;2663;53.588;10.010;2022-08-21T11:54:31;24.30;77.00
5280;DHT22;2663;53.588;10.010;2022-08-21T11:57:25;23.90;76.90
5280;DHT22;2663;53.588;10.010;2022-08-21T12:00:05;23.90;77.60
5280;DHT22;2663;53.588;10.010;2022-08-21T12:02:39;23.70;77.90
5280;DHT22;2663;53.588;10.010;2022-08-21T12:05:22;23.90;76.30
5280;DHT22;2663;53.588;10.010;2022-08-21T12:08:43;23.90;75.40
5280;DHT22;2663;53.588;10.010;2022-08-21T12:11:09;24.10;75.90
5280;DHT22;2663;53.588;10.010;2022-08-21T12:13:52;24.00;76.10
5280;DHT22;2663;53.588;10.010;2022-08-21T12:16:40;24.00;75.80
5280;DHT22;2663;53.588;10.010;2022-08-21T12:21:58;24.10;76.80
5280;DHT22;2663;53.588;10.010;2022-08-21T12:24:38;24.30;77.20
5280;DHT22;2663;53.588;10.010;2022-08-21T12:27:27;23.70;76.60
5280;DHT22;2663;53.588;10.010;2022-08-21T12:30:04;24.40;76.50
5280;DHT22;2663;53.588;10.010;2022-08-21T12:33:01;24.40;77.00
5280;DHT22;2663;53.588;10.010;2022-08-21T12:35:39;24.60;77.00
5280;DHT22;2663;53.588;10.010;2022-08-21T12:38:17;24.90;75.70
5280;DHT22;2663;53.588;10.010;2022-08-21T12:40:58;24.70;75.30
5280;DHT22;2663;53.588;10.010;2022-08-21T12:43:40;24.60;75.20
5280;DHT22;2663;53.588;10.010;2022-08-21T12:46:16;24.80;76.10
5280;DHT22;2663;53.588;10.010;2022-08-21T12:48:58;24.80;75.00
5280;DHT22;2663;53.588;10.010;2022-08-21T12:51:31;24.90;74.40
5280;DHT22;2663;53.588;10.010;2022-08-21T12:53:59;24.90;74.10
5280;DHT22;2663;53.588;10.010;2022-08-21T12:56:31;25.10;74.30
5280;DHT22;2663;53.588;10.010;2022-08-21T12:59:04;24.90;74.70
5280;DHT22;2663;53.588;10.010;2022-08-21T13:01:43;24.70;75.30
5280;DHT22;2663;53.588;10.010;2022-08-21T13:04:16;24.70;74.60
5280;DHT22;2663;53.588;10.010;2022-08-21T13:06:46;24.60;74.90
5280;DHT22;2663;53.588;10.010;2022-08-21T13:09:16;24.40;75.20
5280;DHT22;2663;53.588;10.010;2022-08-21T13:11:45;24.30;75.30
5280;DHT22;2663;53.588;10.010;2022-08-21T13:14:39;24.60;75.10
5280;DHT22;2663;53.588;10.010;2022-08-21T13:17:12;24.80;74.50
5280;DHT22;2663;53.588;10.010;2022-08-21T13:20:06;24.70;74.20
5280;DHT22;2663;53.588;10.010;2022-08-21T13:22:41;24.90;73.60
5280;DHT22;2663;53.588;10.010;2022-08-21T13:25:13;25.10;72.60
5280;DHT22;2663;53.588;10.010;2022-08-21T13:27:42;25.20;71.40
5280;DHT22;2663;53.588;10.010;2022-08-21T13:30:13;25.00;71.80
5280;DHT22;2663;53.588;10.010;2022-08-21T13:32:43;25.20;71.90
5280;DHT22;2663;53.588;10.010;2022-08-21T13:35:17;25.10;71.80
5280;DHT22;2663;53.588;10.010;2022-08-21T13:37:46;24.90;72.20
5280;DHT22;2663;53.588;10.010;2022-08-21T13:40:23;24.90;72.80
5280;DHT22;2663;53.588;10.010;2022-08-21T13:42:51;24.80;72.90
5280;DHT22;2663;53.588;10.010;2022-08-21T13:45:29;24.50;72.60
5280;DHT22;2663;53.588;10.010;2022-08-21T13:47:57;24.40;73.10
5280;DHT22;2663;53.588;10.010;2022-08-21T13:50:33;24.50;72.90
5280;DHT22;2663;53.588;10.010;2022-08-21T13:53:05;24.50;72.50
5280;DHT22;2663;53.588;10.010;2022-08-21T13:55:43;24.60;72.50
5280;DHT22;2663;53.588;10.010;2022-08-21T13:58:10;24.70;72.40
5280;DHT22;2663;53.588;10.010;2022-08-21T14:00:47;24.60;72.80
5280;DHT22;2663;53.588;10.010;2022-08-21T14:03:41;24.90;73.10
5280;DHT22;2663;53.588;10.010;2022-08-21T14:06:21;25.40;71.60
5280;DHT22;2663;53.588;10.010;2022-08-21T14:09:00;25.60;71.00
5280;DHT22;2663;53.588;10.010;2022-08-21T14:11:32;25.90;71.40
5280;DHT22;2663;53.588;10.010;2022-08-21T14:14:07;26.10;70.20
5280;DHT22;2663;53.588;10.010;2022-08-21T14:17:01;25.90;70.70
5280;DHT22;2663;53.588;10.010;2022-08-21T14:19:49;26.20;70.60
5280;DHT22;2663;53.588;10.010;2022-08-21T14:22:23;26.30;70.50
5280;DHT22;2663;53.588;10.010;2022-08-21T14:24:50;25.90;70.50
5280;DHT22;2663;53.588;10.010;2022-08-21T14:27:29;25.40;71.50
5280;DHT22;2663;53.588;10.010;2022-08-21T14:30:08;25.30;71.70
5280;DHT22;2663;53.588;10.010;2022-08-21T14:32:39;25.30;71.90
5280;DHT22;2663;53.588;10.010;2022-08-21T14:35:11;25.50;71.40
5280;DHT22;2663;53.588;10.010;2022-08-21T14:37:42;25.60;71.40
5280;DHT22;2663;53.588;10.010;2022-08-21T14:40:10;25.40;71.90
5280;DHT22;2663;53.588;10.010;2022-08-21T14:42:42;25.40;71.90
5280;DHT22;2663;53.588;10.010;2022-08-21T14:45:30;25.30;71.80
5280;DHT22;2663;53.588;10.010;2022-08-21T14:47:58;25.20;72.60
5280;DHT22;2663;53.588;10.010;2022-08-21T14:50:25;25.30;72.20
5280;DHT22;2663;53.588;10.010;2022-08-21T14:52:54;25.20;71.50
5280;DHT22;2663;53.588;10.010;2022-08-21T14:55:20;25.10;72.30
5280;DHT22;2663;53.588;10.010;2022-08-21T14:57:49;25.00;72.20
5280;DHT22;2663;53.588;10.010;2022-08-21T15:00:20;24.90;72.10
5280;DHT22;2663;53.588;10.010;2022-08-21T15:02:48;24.90;72.10
5280;DHT22;2663;53.588;10.010;2022-08-21T15:05:15;24.80;72.20
5280;DHT22;2663;53.588;10.010;2022-08-21T15:07:58;25.00;71.80
5280;DHT22;2663;53.588;10.010;2022-08-21T15:10:25;25.50;70.80
5280;DHT22;2663;53.588;10.010;2022-08-21T15:12:52;25.80;70.50
5280;DHT22;2663;53.588;10.010;2022-08-21T15:15:18;26.10;70.20
5280;DHT22;2663;53.588;10.010;2022-08-21T15:17:45;26.50;70.80
5280;DHT22;2663;53.588;10.010;2022-08-21T15:20:14;26.90;69.30
5280;DHT22;2663;53.588;10.010;2022-08-21T15:22:41;27.00;69.30
5280;DHT22;2663;53.588;10.010;2022-08-21T15:25:14;26.90;68.70
5280;DHT22;2663;53.588;10.010;2022-08-21T15:27:41;26.80;69.00
5280;DHT22;2663;53.588;10.010;2022-08-21T15:30:08;26.80;69.20
5280;DHT22;2663;53.588;10.010;2022-08-21T15:32:35;26.60;68.90
5280;DHT22;2663;53.588;10.010;2022-08-21T15:35:02;26.40;69.50
5280;DHT22;2663;53.588;10.010;2022-08-21T15:37:29;26.30;69.60
5280;DHT22;2663;53.588;10.010;2022-08-21T15:39:55;26.30;69.00
5280;DHT22;2663;53.588;10.010;2022-08-21T15:42:24;26.10;69.40
5280;DHT22;2663;53.588;10.010;2022-08-21T15:44:54;25.90;69.40
5280;DHT22;2663;53.588;10.010;2022-08-21T15:47:30;25.80;69.30
5280;DHT22;2663;53.588;10.010;2022-08-21T15:49:57;25.90;69.60
5280;DHT22;2663;53.588;10.010;2022-08-21T15:52:24;26.00;69.30
5280;DHT22;2663;53.588;10.010;2022-08-21T15:54:51;25.80;70.00
5280;DHT22;2663;53.588;10.010;2022-08-21T15:57:21;25.50;70.40
5280;DHT22;2663;53.588;10.010;2022-08-21T15:59:51;25.20;70.90
5280;DHT22;2663;53.588;10.010;2022-08-21T16:02:22;25.70;70.70
5280;DHT22;2663;53.588;10.010;2022-08-21T16:04:49;26.50;69.60
5280;DHT22;2663;53.588;10.010;2022-08-21T16:07:16;28.90;67.10
5280;DHT22;2663;53.588;10.010;2022-08-21T16:09:43;31.40;63.10
5280;DHT22;2663;53.588;10.010;2022-08-21T16:12:17;33.30;60.80
5280;DHT22;2663;53.588;10.010;2022-08-21T16:14:46;34.00;58.70
5280;DHT22;2663;53.588;10.010;2022-08-21T16:17:12;32.90;58.70
5280;DHT22;2663;53.588;10.010;2022-08-21T16:19:39;30.80;60.90
5280;DHT22;2663;53.588;10.010;2022-08-21T16:22:06;28.80;63.40
5280;DHT22;2663;53.588;10.010;2022-08-21T16:24:33;27.90;65.30
5280;DHT22;2663;53.588;10.010;2022-08-21T16:27:02;26.80;65.80
5280;DHT22;2663;53.588;10.010;2022-08-21T16:29:35;26.10;67.50
5280;DHT22;2663;53.588;10.010;2022-08-21T16:32:02;25.80;67.90
5280;DHT22;2663;53.588;10.010;2022-08-21T16:34:30;25.70;68.10
5280;DHT22;2663;53.588;10.010;2022-08-21T16:36:57;25.60;68.10
5280;DHT22;2663;53.588;10.010;2022-08-21T16:39:24;25.60;68.60
5280;DHT22;2663;53.588;10.010;2022-08-21T16:41:51;25.30;68.30
5280;DHT22;2663;53.588;10.010;2022-08-21T16:44:18;25.60;68.50
5280;DHT22;2663;53.588;10.010;2022-08-21T16:46:46;25.50;68.10
5280;DHT22;2663;53.588;10.010;2022-08-21T16:49:13;25.40;67.70
5280;DHT22;2663;53.588;10.010;2022-08-21T16:51:40;25.40;67.60
5280;DHT22;2663;53.588;10.010;2022-08-21T16:54:07;25.30;68.30
5280;DHT22;2663;53.588;10.010;2022-08-21T16:56:33;25.30;68.80
5280;DHT22;2663;53.588;10.010;2022-08-21T16:59:06;25.30;69.00
5280;DHT22;2663;53.588;10.010;2022-08-21T17:01:34;25.20;69.50
5280;DHT22;2663;53.588;10.010;2022-08-21T17:04:02;25.20;69.40
5280;DHT22;2663;53.588;10.010;2022-08-21T17:06:29;25.30;69.60
5280;DHT22;2663;53.588;10.010;2022-08-21T17:08:57;25.20;69.70
5280;DHT22;2663;53.588;10.010;2022-08-21T17:11:28;25.20;70.20
5280;DHT22;2663;53.588;10.010;2022-08-21T17:14:12;25.20;69.70